Time;durP1;ratioP1;P1;durP2;ratioP2;P2;SDS_P1;SDS_P2;PMS_P1;PMS_P2;Temp;Humidity;BMP_temperature;BMP_pressure;BME280_temperature;BME280_humidity;BME280_pressure;Samples;Min_cycle;Max_cycle;Signal;HPM_P1;HPM_P2
2024/03/25 00:03:10;;;;;;;6.60;3.30;;;;;;;6.13;60.73;97663.14;233785;179;139243;-56
2024/03/25 00:08:13;;;;;;;7.00;3.30;;;;;;;6.26;60.01;97662.11;233855;179;152897;-53
2024/03/25 00:13:16;;;;;;;5.10;3.20;;;;;;;6.43;59.59;97666.77;233836;179;137217;-50
2024/03/25 00:18:19;;;;;;;7.50;3.20;;;;;;;6.50;59.32;97670.59;233966;178;137987;-55
2024/03/25 00:23:22;;;;;;;7.30;3.80;;;;;;;6.50;59.10;97670.20;233913;179;152866;-53
2024/03/25 00:28:25;;;;;;;3.80;2.70;;;;;;;6.54;58.82;97665.50;233878;179;137696;-51
2024/03/25 00:33:28;;;;;;;9.20;3.40;;;;;;;6.61;58.53;97663.44;233872;179;138348;-50
2024/03/25 00:38:31;;;;;;;6.70;3.40;;;;;;;6.64;58.21;97662.36;233781;179;154137;-51
2024/03/25 00:43:34;;;;;;;6.70;3.50;;;;;;;6.70;58.08;97661.42;233880;179;138679;-53
2024/03/25 00:48:38;;;;;;;6.50;3.30;;;;;;;6.79;57.69;97658.72;233886;178;137104;-52
2024/03/25 00:53:42;;;;;;;7.60;3.10;;;;;;;6.79;57.66;97655.20;233917;179;153942;-48
2024/03/25 00:58:46;;;;;;;6.60;3.50;;;;;;;6.83;57.59;97655.05;233834;179;138580;-51
2024/03/25 01:03:49;;;;;;;7.50;3.60;;;;;;;6.87;57.48;97652.31;233910;179;138134;-53
2024/03/25 01:08:52;;;;;;;8.20;3.60;;;;;;;6.85;57.25;97653.38;233718;179;154169;-49
2024/03/25 01:13:55;;;;;;;7.50;4.10;;;;;;;6.83;57.49;97651.18;233928;178;138321;-51
2024/03/25 01:18:58;;;;;;;9.40;4.40;;;;;;;6.85;57.40;97647.68;233723;179;138590;-54
2024/03/25 01:24:02;;;;;;;8.40;4.20;;;;;;;6.87;57.40;97643.83;233922;178;154794;-53
2024/03/25 01:29:05;;;;;;;9.00;4.10;;;;;;;6.82;57.52;97645.11;233275;179;139072;-50
2024/03/25 01:34:07;;;;;;;9.40;4.80;;;;;;;6.87;57.60;97644.02;233910;168;137318;-53
2024/03/25 01:39:10;;;;;;;9.90;4.30;;;;;;;6.88;57.54;97641.52;233887;179;154403;-52
2024/03/25 01:44:13;;;;;;;8.30;4.20;;;;;;;6.84;57.66;97644.63;233759;179;138476;-54
2024/03/25 01:49:16;;;;;;;8.30;4.00;;;;;;;6.83;57.71;97641.32;233710;179;138751;-50
2024/03/25 01:54:19;;;;;;;6.90;3.80;;;;;;;6.81;57.82;97641.08;233761;179;154370;-50
2024/03/25 01:59:23;;;;;;;7.10;4.00;;;;;;;6.79;58.12;97640.36;233876;179;138256;-50
2024/03/25 02:04:27;;;;;;;7.80;3.70;;;;;;;6.80;58.28;97638.21;233886;179;137862;-53
2024/03/25 02:09:30;;;;;;;6.90;3.60;;;;;;;6.81;58.26;97638.45;233856;179;153734;-50
2024/03/25 02:14:33;;;;;;;5.50;3.40;;;;;;;6.79;58.64;97635.59;233267;179;138624;-52
2024/03/25 02:19:39;;;;;;;6.70;3.30;;;;;;;6.78;58.85;97642.21;233884;179;137292;-49
2024/03/25 02:24:43;;;;;;;8.20;3.50;;;;;;;6.78;59.03;97637.25;233887;179;154204;-52
2024/03/25 02:29:47;;;;;;;7.30;3.00;;;;;;;6.81;59.29;97638.31;233828;179;137373;-53
2024/03/25 02:34:51;;;;;;;5.50;3.40;;;;;;;6.80;59.41;97637.64;233907;179;137960;-54
2024/03/25 02:39:57;;;;;;;6.10;3.20;;;;;;;6.83;59.42;97637.41;233730;179;153276;-55
2024/03/25 02:45:00;;;;;;;;;;;;;;;6.82;59.46;97637.15;233874;179;137291;-54
2024/03/25 02:50:03;;;;;;;7.10;2.90;;;;;;;6.67;59.82;97636.77;233958;179;137883;-52
2024/03/25 02:55:06;;;;;;;3.80;2.50;;;;;;;6.65;60.09;97630.42;233890;179;153232;-53
2024/03/25 03:00:10;;;;;;;5.90;2.80;;;;;;;6.61;60.36;97631.71;233848;179;137552;-51
2024/03/25 03:05:13;;;;;;;5.40;2.90;;;;;;;6.60;60.42;97625.98;233866;179;138445;-51
2024/03/25 03:10:16;;;;;;;5.60;2.90;;;;;;;6.59;60.65;97626.75;233826;179;153711;-51
2024/03/25 03:15:19;;;;;;;4.30;2.70;;;;;;;6.59;60.82;97627.84;233906;179;138849;-51
2024/03/25 03:20:22;;;;;;;5.90;2.70;;;;;;;6.64;60.80;97631.00;233911;178;137078;-48
2024/03/25 03:25:25;;;;;;;6.20;3.40;;;;;;;6.72;60.88;97639.11;233816;179;153269;-51
2024/03/25 03:30:28;;;;;;;7.20;3.00;;;;;;;6.76;60.91;97646.59;233769;179;141503;-52
2024/03/25 03:35:35;;;;;;;6.00;3.10;;;;;;;6.78;60.85;97656.86;233840;179;137245;-55
2024/03/25 03:40:38;;;;;;;5.80;3.20;;;;;;;6.76;60.83;97656.96;233768;179;153134;-51
2024/03/25 03:45:41;;;;;;;5.20;2.80;;;;;;;6.78;60.97;97656.15;233770;179;137435;-50
2024/03/25 03:50:45;;;;;;;5.30;3.20;;;;;;;6.78;60.93;97657.35;233903;179;139322;-52
2024/03/25 03:55:55;;;;;;;9.10;3.40;;;;;;;6.76;61.11;97656.79;233802;178;153399;-51
2024/03/25 04:00:58;;;;;;;8.50;3.20;;;;;;;6.70;61.22;97658.96;233865;179;137206;-48
2024/03/25 04:06:07;;;;;;;4.80;2.70;;;;;;;6.65;61.52;97661.92;233787;179;137497;-54
2024/03/25 04:11:11;;;;;;;7.10;3.10;;;;;;;6.68;61.68;97661.05;233800;179;152847;-53
2024/03/25 04:16:14;;;;;;;5.50;2.80;;;;;;;6.75;61.68;97655.48;233949;178;137802;-53
2024/03/25 04:21:17;;;;;;;5.60;2.80;;;;;;;6.80;61.46;97654.38;233975;178;138427;-50
2024/03/25 04:26:20;;;;;;;7.20;2.90;;;;;;;6.85;61.31;97649.97;233857;179;153253;-52
2024/03/25 04:31:23;;;;;;;6.40;2.70;;;;;;;6.90;61.17;97653.02;233836;172;138269;-52
2024/03/25 04:36:26;;;;;;;6.70;2.80;;;;;;;6.99;60.96;97653.62;233917;178;137279;-51
2024/03/25 04:41:31;;;;;;;6.80;3.20;;;;;;;7.01;60.87;97658.09;233785;179;154557;-55
2024/03/25 04:46:34;;;;;;;5.80;3.10;;;;;;;7.00;60.70;97658.66;233838;179;138417;-54
2024/03/25 04:51:37;;;;;;;108.50;73.10;;;;;;;7.06;61.27;97663.50;233897;178;139138;-48
2024/03/25 04:56:40;;;;;;;125.30;97.30;;;;;;;7.10;61.12;97663.60;233914;178;153641;-53
2024/03/25 05:01:45;;;;;;;115.80;83.80;;;;;;;7.13;60.92;97661.84;233857;179;138084;-49
2024/03/25 05:06:48;;;;;;;10.10;6.10;;;;;;;7.16;61.68;97659.08;233828;178;138539;-49
2024/03/25 05:11:51;;;;;;;7.50;3.10;;;;;;;7.17;60.68;97660.63;233345;178;154159;-51
2024/03/25 05:16:54;;;;;;;5.20;2.80;;;;;;;7.25;60.34;97664.15;233797;179;140093;-52
2024/03/25 05:21:57;;;;;;;6.20;2.80;;;;;;;7.24;60.24;97665.26;233881;178;137861;-54
2024/03/25 05:27:00;;;;;;;8.20;3.00;;;;;;;7.28;60.18;97667.06;233834;179;153786;-52
2024/03/25 05:32:04;;;;;;;6.40;3.00;;;;;;;7.37;59.89;97666.65;233874;179;137285;-50
2024/03/25 05:37:07;;;;;;;4.10;2.90;;;;;;;7.47;59.42;97671.08;233893;179;138924;-53
2024/03/25 05:42:11;;;;;;;5.00;2.70;;;;;;;7.52;59.03;97669.58;233875;179;153218;-50
2024/03/25 05:47:14;;;;;;;139.90;98.60;;;;;;;7.69;59.84;97674.75;233637;179;138665;-54
2024/03/25 05:52:17;;;;;;;9.00;5.10;;;;;;;7.83;58.92;97674.27;233711;179;137499;-53
2024/03/25 05:57:20;;;;;;;141.00;98.40;;;;;;;7.95;58.69;97676.91;233748;179;153081;-57
2024/03/25 06:02:24;;;;;;;4.70;3.30;;;;;;;8.09;58.62;97678.20;233821;178;138433;-50
2024/03/25 06:07:27;;;;;;;3.50;2.60;;;;;;;8.14;57.42;97676.91;233763;179;137818;-55
2024/03/25 06:12:29;;;;;;;7.40;2.10;;;;;;;8.13;57.02;97682.50;233839;179;154234;-55
2024/03/25 06:17:32;;;;;;;5.40;2.40;;;;;;;8.03;57.03;97690.98;233903;179;138117;-55
2024/03/25 06:22:35;;;;;;;22.10;13.40;;;;;;;8.03;57.60;97696.08;233935;179;137325;-54
2024/03/25 06:27:38;;;;;;;4.90;1.80;;;;;;;8.03;58.18;97703.91;233777;179;153149;-52
2024/03/25 06:38:03;;;;;;;13.70;5.90;;;;;;;7.79;59.79;97711.29;233893;179;141883;-56
2024/03/25 06:43:06;;;;;;;3.60;2.10;;;;;;;7.78;59.42;97714.88;233730;179;153099;-53
2024/03/25 06:48:09;;;;;;;3.60;1.90;;;;;;;7.71;59.50;97715.91;233842;178;138125;-55
2024/03/25 06:53:13;;;;;;;2.80;1.70;;;;;;;7.64;59.86;97717.64;233854;179;138099;-55
2024/03/25 06:58:17;;;;;;;3.60;2.10;;;;;;;7.61;60.35;97719.98;233797;179;153881;-55
2024/03/25 07:03:22;;;;;;;3.50;1.70;;;;;;;7.67;60.91;97723.96;233853;179;138552;-57
2024/03/25 07:08:27;;;;;;;2.70;1.70;;;;;;;7.75;61.32;97725.84;233805;179;137196;-52
2024/03/25 07:13:30;;;;;;;3.10;1.90;;;;;;;7.86;61.33;97727.23;233861;179;153015;-57
2024/03/25 07:18:33;;;;;;;2.40;1.80;;;;;;;7.90;60.94;97733.09;233879;178;138108;-55
2024/03/25 07:23:36;;;;;;;2.30;1.80;;;;;;;7.93;60.94;97740.11;233910;179;137485;-54
2024/03/25 07:28:39;;;;;;;3.90;1.70;;;;;;;7.91;61.04;97740.11;233580;179;153163;-55
2024/03/25 07:33:42;;;;;;;2.10;1.70;;;;;;;7.89;61.05;97742.34;233718;179;137825;-55
2024/03/25 07:38:45;;;;;;;4.30;2.20;;;;;;;7.94;61.05;97745.37;233875;179;137365;-55
2024/03/25 07:43:48;;;;;;;3.90;2.00;;;;;;;8.01;61.16;97751.85;233861;179;153576;-56
2024/03/25 07:48:51;;;;;;;4.50;2.40;;;;;;;8.06;61.38;97755.20;233769;179;138766;-57
2024/03/25 07:53:54;;;;;;;5.00;1.90;;;;;;;8.11;61.56;97760.56;233881;178;137863;-56
2024/03/25 07:58:59;;;;;;;4.10;2.60;;;;;;;8.10;62.03;97762.73;233832;178;153695;-58
2024/03/25 08:04:02;;;;;;;4.90;2.10;;;;;;;8.13;62.27;97768.66;233823;179;137085;-57
2024/03/25 08:09:05;;;;;;;4.60;2.30;;;;;;;8.11;62.54;97771.14;233829;179;137784;-54
2024/03/25 08:14:08;;;;;;;68.80;51.10;;;;;;;8.14;63.26;97774.27;233875;178;153329;-55
2024/03/25 08:19:11;;;;;;;4.10;2.90;;;;;;;8.19;64.09;97775.01;233891;179;137747;-54
2024/03/25 08:24:15;;;;;;;2.80;2.00;;;;;;;8.20;63.93;97778.58;233820;179;137511;-57
2024/03/25 08:29:18;;;;;;;6.60;2.90;;;;;;;8.22;64.51;97777.94;233815;178;152946;-55
2024/03/25 08:34:21;;;;;;;4.20;2.90;;;;;;;8.30;65.35;97779.08;233883;168;137356;-55
2024/03/25 08:39:24;;;;;;;5.60;2.80;;;;;;;8.31;65.73;97782.73;233929;179;137961;-55
2024/03/25 08:44:27;;;;;;;4.00;2.80;;;;;;;8.26;66.17;97780.95;233878;178;154792;-55
2024/03/25 08:49:30;;;;;;;4.70;2.80;;;;;;;8.21;66.39;97784.92;233818;179;138148;-56
2024/03/25 08:54:33;;;;;;;61.10;43.30;;;;;;;8.28;66.74;97786.65;233808;179;137043;-52
2024/03/25 08:59:36;;;;;;;28.70;20.10;;;;;;;8.49;67.30;97786.04;233791;178;153170;-56
2024/03/25 09:04:39;;;;;;;4.00;2.70;;;;;;;8.75;66.98;97782.00;233767;179;138015;-56
2024/03/25 09:15:04;;;;;;;3.80;2.50;;;;;;;8.85;65.90;97781.23;233924;172;153459;-57
2024/03/25 09:20:16;;;;;;;96.50;77.50;;;;;;;8.89;65.73;97786.45;233793;179;138289;-57
2024/03/25 09:25:19;;;;;;;150.80;93.10;;;;;;;9.04;64.85;97786.55;233676;179;138475;-56
2024/03/25 09:30:22;;;;;;;5.60;4.20;;;;;;;9.11;64.33;97791.84;233737;179;153754;-56
2024/03/25 09:35:25;;;;;;;5.90;3.00;;;;;;;9.15;64.16;97791.90;233639;179;137427;-58
2024/03/25 09:40:29;;;;;;;5.40;2.90;;;;;;;9.16;63.91;97796.44;233772;178;137783;-57
2024/03/25 09:45:33;;;;;;;144.90;105.10;;;;;;;9.15;63.51;97797.34;233374;179;153198;-57
2024/03/25 09:50:37;;;;;;;5.60;4.00;;;;;;;9.23;63.27;97793.40;233754;179;137591;-56
2024/03/25 09:55:39;;;;;;;4.70;2.60;;;;;;;9.30;62.74;97790.39;233675;179;137986;-58
2024/03/25 10:00:42;;;;;;;3.30;2.40;;;;;;;9.33;62.73;97796.19;233600;179;154221;-50
2024/03/25 10:05:46;;;;;;;2.30;1.40;;;;;;;9.13;63.29;97812.41;233822;171;138118;-56
2024/03/25 10:10:50;;;;;;;2.50;1.50;;;;;;;8.85;64.30;97812.39;233889;179;137405;-55
2024/03/25 10:15:55;;;;;;;2.60;1.70;;;;;;;8.71;65.36;97812.49;233792;179;152882;-55
2024/03/25 10:20:58;;;;;;;2.20;1.70;;;;;;;8.76;65.95;97805.61;233740;179;137679;-54
2024/03/25 10:26:01;;;;;;;2.60;1.90;;;;;;;9.05;65.23;97798.14;233888;179;138615;-55
2024/03/25 10:31:05;;;;;;;3.20;1.80;;;;;;;9.26;64.68;97796.36;233842;179;153416;-56
2024/03/25 10:36:09;;;;;;;1.60;1.50;;;;;;;9.53;65.00;97794.59;233890;179;138579;-55
2024/03/25 10:41:16;;;;;;;2.30;1.50;;;;;;;9.68;63.76;97795.02;233674;178;139161;-56
2024/03/25 10:46:21;;;;;;;2.50;1.50;;;;;;;9.64;63.43;97801.16;233909;179;153102;-56
2024/03/25 10:51:26;;;;;;;2.20;1.70;;;;;;;9.59;62.89;97799.65;233587;175;138619;-55
2024/03/25 10:56:29;;;;;;;3.90;1.60;;;;;;;9.50;62.52;97801.45;233830;179;139918;-56
2024/03/25 11:01:33;;;;;;;3.60;1.80;;;;;;;9.56;62.31;97792.98;233913;179;153208;-57
2024/03/25 11:06:36;;;;;;;2.10;1.60;;;;;;;9.78;62.04;97784.48;233744;178;142498;-55
2024/03/25 11:11:39;;;;;;;2.60;1.70;;;;;;;9.95;60.88;97786.85;233902;179;137778;-56
2024/03/25 11:16:42;;;;;;;3.40;1.60;;;;;;;10.18;59.80;97792.14;233845;178;153237;-58
2024/03/25 11:21:45;;;;;;;2.20;1.60;;;;;;;10.36;58.81;97789.30;233371;179;140823;-55
2024/03/25 11:26:52;;;;;;;1.60;1.20;;;;;;;10.40;57.48;97787.00;233640;178;141762;-56
2024/03/25 11:32:00;;;;;;;2.30;1.20;;;;;;;10.25;57.18;97788.79;233033;179;153001;-54
2024/03/25 11:37:04;;;;;;;2.20;1.40;;;;;;;9.94;57.47;97817.96;233759;179;137348;-54
2024/03/25 11:42:08;;;;;;;1.50;1.10;;;;;;;9.52;59.86;97834.00;233784;179;137687;-54
2024/03/25 11:47:12;;;;;;;2.10;1.10;;;;;;;9.04;61.75;97847.75;233748;179;153093;-56
2024/03/25 11:52:16;;;;;;;2.80;1.10;;;;;;;8.73;63.07;97841.52;233766;179;138710;-56
2024/03/25 11:57:21;;;;;;;1.40;1.00;;;;;;;8.63;64.17;97842.14;233533;178;137332;-57
2024/03/25 12:02:26;;;;;;;3.30;1.50;;;;;;;8.65;64.94;97838.41;233494;179;154975;-56
2024/03/25 12:07:29;;;;;;;2.40;1.30;;;;;;;9.00;65.89;97834.80;233579;179;137534;-56
2024/03/25 12:12:33;;;;;;;4.80;1.60;;;;;;;9.60;64.42;97841.73;233668;179;138259;-58
2024/03/25 12:17:36;;;;;;;2.20;1.60;;;;;;;9.86;62.27;97833.52;233550;179;153383;-56
2024/03/25 12:22:40;;;;;;;3.60;1.70;;;;;;;10.15;62.63;97831.71;233627;179;138381;-57
2024/03/25 12:27:46;;;;;;;3.80;1.80;;;;;;;10.83;62.36;97827.44;233566;179;140465;-57
2024/03/25 12:32:50;;;;;;;3.90;2.00;;;;;;;11.28;60.22;97826.52;233179;179;153990;-57
2024/03/25 12:37:54;;;;;;;2.50;1.90;;;;;;;11.45;58.92;97824.74;233655;179;137974;-58
2024/03/25 12:42:57;;;;;;;1.70;1.60;;;;;;;11.22;57.99;97830.45;233545;179;138185;-55
2024/03/25 12:48:00;;;;;;;3.30;2.60;;;;;;;10.79;58.49;97840.36;233547;179;155361;-54
2024/03/25 12:53:04;;;;;;;2.50;1.80;;;;;;;10.42;59.93;97848.58;233645;179;139102;-57
2024/03/25 12:58:07;;;;;;;1.60;1.20;;;;;;;10.09;60.09;97855.91;233633;179;154904;-58
2024/03/25 13:03:11;;;;;;;1.70;1.30;;;;;;;9.73;60.46;97857.70;233591;180;153554;-57
2024/03/25 13:08:17;;;;;;;2.20;1.60;;;;;;;9.61;61.52;97855.62;233514;180;140807;-56
2024/03/25 13:13:20;;;;;;;3.40;1.40;;;;;;;9.92;61.86;97850.89;232934;180;138746;-57
2024/03/25 13:18:24;;;;;;;2.00;1.20;;;;;;;10.49;61.70;97839.97;233503;180;153749;-57
2024/03/25 13:23:27;;;;;;;2.10;1.40;;;;;;;11.11;59.48;97840.25;233587;180;137420;-57
2024/03/25 13:28:30;;;;;;;1.80;1.30;;;;;;;11.64;59.09;97832.05;233511;180;137731;-56
2024/03/25 13:33:33;;;;;;;1.80;1.40;;;;;;;12.08;57.17;97841.73;233490;180;153195;-57
2024/03/25 13:38:36;;;;;;;3.80;2.30;;;;;;;12.21;56.86;97844.05;233338;180;138638;-56
2024/03/25 13:43:43;;;;;;;1.40;1.10;;;;;;;12.21;54.87;97850.02;233478;180;137358;-58
2024/03/25 13:48:47;;;;;;;1.40;1.10;;;;;;;11.73;54.37;97856.29;233543;180;153307;-57
2024/03/25 13:53:50;;;;;;;1.90;1.40;;;;;;;11.25;56.08;97863.96;233465;180;137733;-58
2024/03/25 13:58:55;;;;;;;2.40;1.50;;;;;;;10.92;57.52;97889.18;233302;180;138652;-57
2024/03/25 14:03:58;;;;;;;2.70;1.10;;;;;;;10.19;58.10;97918.79;233410;180;153467;-56
2024/03/25 14:09:01;;;;;;;3.30;1.10;;;;;;;9.51;59.43;97916.98;233537;180;137683;-57
2024/03/25 14:14:04;;;;;;;1.50;1.10;;;;;;;9.27;61.08;97901.27;233590;180;140366;-56
2024/03/25 14:19:07;;;;;;;1.80;1.30;;;;;;;9.33;62.70;97896.36;233482;180;153980;-55
2024/03/25 14:24:10;;;;;;;3.40;1.50;;;;;;;9.46;63.28;97899.11;233539;180;137338;-56
2024/03/25 14:29:13;;;;;;;1.80;1.50;;;;;;;9.56;63.92;97901.34;232985;180;138794;-57
2024/03/25 14:34:16;;;;;;;1.80;1.40;;;;;;;9.63;63.62;97904.83;233596;180;154775;-58
2024/03/25 14:39:19;;;;;;;2.50;1.10;;;;;;;9.70;63.05;97909.46;233600;180;138145;-57
2024/03/25 14:44:22;;;;;;;1.70;1.40;;;;;;;9.74;62.60;97902.83;233255;180;138452;-57
2024/03/25 14:49:26;;;;;;;2.00;1.40;;;;;;;9.70;62.60;97895.30;233582;180;153172;-59
2024/03/25 14:54:37;;;;;;;4.60;1.40;;;;;;;9.82;63.13;97886.27;233605;180;137940;-57
2024/03/25 14:59:40;;;;;;;2.40;1.60;;;;;;;9.99;63.22;97890.71;233449;180;137344;-58
2024/03/25 15:04:44;;;;;;;2.10;1.80;;;;;;;10.17;62.99;97890.23;233499;180;152932;-58
2024/03/25 15:09:47;;;;;;;2.30;1.70;;;;;;;10.27;62.46;97886.33;233460;180;137714;-56
2024/03/25 15:14:50;;;;;;;3.90;2.00;;;;;;;10.29;61.64;97887.36;233530;180;138061;-58
2024/03/25 15:19:53;;;;;;;2.80;1.90;;;;;;;10.27;60.78;97891.09;233223;180;153316;-56
2024/03/25 15:24:56;;;;;;;2.80;1.90;;;;;;;10.17;60.83;97898.36;233457;180;139164;-58
2024/03/25 15:29:59;;;;;;;2.30;2.10;;;;;;;10.07;60.87;97898.80;233517;180;137195;-55
2024/03/25 15:35:02;;;;;;;2.60;2.10;;;;;;;9.94;60.81;97911.84;233099;180;153765;-55
2024/03/25 15:40:09;;;;;;;4.80;2.60;;;;;;;9.83;61.43;97916.95;233565;180;137978;-54
2024/03/25 15:45:12;;;;;;;4.70;2.40;;;;;;;9.78;61.46;97924.31;233592;180;140008;-55
2024/03/25 15:50:15;;;;;;;5.00;2.70;;;;;;;9.82;61.68;97921.70;233592;180;153800;-55
2024/03/25 15:55:18;;;;;;;3.70;2.50;;;;;;;9.76;61.54;97924.43;233482;180;138398;-57
2024/03/25 16:00:21;;;;;;;4.10;2.50;;;;;;;9.65;61.46;97922.42;233351;180;137916;-54
2024/03/25 16:05:24;;;;;;;11.20;6.80;;;;;;;9.62;62.08;97921.58;233472;180;153622;-55
2024/03/25 16:10:35;;;;;;;4.30;2.50;;;;;;;9.61;61.93;97923.84;233552;169;137409;-52
2024/03/25 16:15:38;;;;;;;5.20;3.20;;;;;;;9.57;61.79;97931.34;233552;180;136850;-55
2024/03/25 16:20:42;;;;;;;5.00;3.10;;;;;;;9.52;61.96;97941.46;233493;180;153128;-55
2024/03/25 16:25:45;;;;;;;5.20;3.00;;;;;;;9.45;62.10;97938.96;233504;180;138037;-55
2024/03/25 16:30:48;;;;;;;9.10;3.30;;;;;;;9.40;62.42;97940.60;233529;180;138738;-55
2024/03/25 16:35:51;;;;;;;3.80;3.00;;;;;;;9.36;62.71;97942.83;233412;180;153795;-55
2024/03/25 16:40:54;;;;;;;3.80;2.80;;;;;;;9.29;62.78;97944.81;233534;180;138056;-54
2024/03/25 16:45:57;;;;;;;4.70;3.00;;;;;;;9.26;62.67;97948.89;233266;180;137428;-54
2024/03/25 16:51:01;;;;;;;5.20;2.60;;;;;;;9.23;62.59;97949.98;233086;177;154010;-58
2024/03/25 16:56:06;;;;;;;4.10;2.80;;;;;;;9.21;62.62;97956.73;233479;180;137315;-55
2024/03/25 17:01:09;;;;;;;3.50;2.50;;;;;;;9.12;63.14;97980.58;233487;180;137305;-55
2024/03/25 17:06:12;;;;;;;3.20;2.10;;;;;;;8.92;62.72;97997.90;233540;180;153727;-55
2024/03/25 17:11:16;;;;;;;4.80;2.60;;;;;;;8.79;63.23;97994.66;233444;180;138328;-55
2024/03/25 17:16:18;;;;;;;3.70;2.40;;;;;;;8.62;64.06;98014.38;233420;173;137784;-55
2024/03/25 17:21:22;;;;;;;6.10;3.50;;;;;;;8.55;63.99;98014.86;233334;180;153284;-56
2024/03/25 17:26:25;;;;;;;4.90;2.60;;;;;;;8.46;64.44;98023.25;233498;180;137747;-55
2024/03/25 17:31:28;;;;;;;4.50;2.90;;;;;;;8.41;64.02;98034.04;233023;180;138733;-56
2024/03/25 17:36:32;;;;;;;4.40;2.70;;;;;;;8.38;64.19;98035.88;233544;176;154021;-56
2024/03/25 17:41:35;;;;;;;5.00;2.70;;;;;;;8.32;64.18;98040.84;233418;180;141409;-55
2024/03/25 17:46:41;;;;;;;4.60;2.90;;;;;;;8.33;64.40;98053.52;233514;169;138058;-55
2024/03/25 17:51:44;;;;;;;4.40;2.80;;;;;;;8.36;64.73;98057.23;233387;180;153387;-57
2024/03/25 17:56:47;;;;;;;3.70;3.10;;;;;;;8.44;64.55;98055.73;233556;180;137112;-58
2024/03/25 18:01:52;;;;;;;59.60;35.80;;;;;;;8.55;65.29;98064.61;233527;180;137816;-57
2024/03/25 18:06:58;;;;;;;5.10;3.70;;;;;;;8.63;64.75;98076.02;233273;180;153340;-57
2024/03/25 18:12:05;;;;;;;5.90;3.90;;;;;;;8.70;64.24;98072.90;233609;180;137999;-56
2024/03/25 18:17:17;;;;;;;6.00;4.00;;;;;;;8.71;64.06;98070.54;233511;180;137476;-56
2024/03/25 18:22:23;;;;;;;6.40;4.20;;;;;;;8.65;63.99;98077.80;233575;180;153117;-57
2024/03/25 18:27:29;;;;;;;6.70;4.30;;;;;;;8.54;65.11;98079.63;233399;180;138809;-56
2024/03/25 18:32:57;;;;;;;6.30;4.50;;;;;;;8.44;65.28;98085.11;233225;181;138644;-57
2024/03/25 18:38:24;;;;;;;5.90;4.10;;;;;;;8.29;65.95;98087.68;233131;181;154031;-56
2024/03/25 18:43:43;;;;;;;9.40;5.00;;;;;;;8.12;66.54;98092.20;233259;179;137302;-58
2024/03/25 18:48:46;;;;;;;7.00;4.40;;;;;;;7.98;67.23;98094.90;232765;177;139274;-59
2024/03/25 18:53:57;;;;;;;8.10;4.80;;;;;;;7.89;67.67;98103.67;233367;181;153683;-58
2024/03/25 18:59:00;;;;;;;8.60;5.20;;;;;;;7.86;68.09;98105.77;233279;181;137330;-58
2024/03/25 19:04:06;;;;;;;9.40;6.20;;;;;;;7.82;68.37;98108.48;233387;181;137246;-61
2024/03/25 19:09:10;;;;;;;8.50;5.40;;;;;;;7.86;68.53;98111.61;233222;181;153347;-59
2024/03/25 19:14:21;;;;;;;9.70;6.20;;;;;;;7.92;68.64;98116.02;233207;181;138255;-58
2024/03/25 19:19:28;;;;;;;10.20;6.30;;;;;;;7.97;68.61;98113.89;233048;181;138745;-56
2024/03/25 19:24:46;;;;;;;10.20;6.40;;;;;;;8.01;68.58;98119.41;233384;181;154023;-57
2024/03/25 19:30:09;;;;;;;10.30;6.50;;;;;;;8.03;68.58;98122.69;233329;180;137834;-57
2024/03/25 19:35:13;;;;;;;116.20;82.30;;;;;;;8.17;71.83;98127.55;233397;180;137985;-57
2024/03/25 19:40:16;;;;;;;17.20;10.70;;;;;;;8.63;70.39;98126.20;233432;180;153955;-56
2024/03/25 19:45:19;;;;;;;11.20;8.30;;;;;;;8.52;68.62;98123.77;233359;180;137705;-57
2024/03/25 19:50:22;;;;;;;12.80;7.80;;;;;;;8.34;68.42;98133.89;232697;174;138681;-57
2024/03/25 19:55:25;;;;;;;12.70;7.90;;;;;;;8.24;68.53;98135.73;233383;181;155344;-58
2024/03/25 20:00:30;;;;;;;11.20;8.50;;;;;;;8.22;68.55;98133.24;233391;181;137827;-58
2024/03/25 20:05:33;;;;;;;12.70;8.50;;;;;;;8.21;68.61;98133.65;232857;173;138701;-58
2024/03/25 20:10:36;;;;;;;13.30;8.20;;;;;;;8.20;68.57;98135.88;233039;181;153041;-57
2024/03/25 20:15:39;;;;;;;334.60;201.80;;;;;;;8.24;69.56;98134.35;233345;181;138334;-57
2024/03/25 20:20:42;;;;;;;14.30;8.50;;;;;;;8.46;71.12;98121.72;233317;181;139060;-57
2024/03/25 20:25:48;;;;;;;15.20;10.10;;;;;;;8.50;68.96;98125.73;233362;181;153460;-61
2024/03/25 20:30:51;;;;;;;33.30;24.30;;;;;;;8.41;68.32;98145.59;232450;181;138692;-59
2024/03/25 20:35:54;;;;;;;17.80;11.10;;;;;;;8.39;68.47;98154.73;233325;181;137343;-57
2024/03/25 20:40:57;;;;;;;15.60;10.80;;;;;;;8.35;68.17;98157.64;233078;181;153778;-59
2024/03/25 20:46:00;;;;;;;15.30;10.90;;;;;;;8.26;68.29;98162.09;233379;181;138885;-60
2024/03/25 20:51:04;;;;;;;14.60;10.70;;;;;;;8.09;68.48;98166.44;233466;181;137735;-60
2024/03/25 20:56:07;;;;;;;25.90;18.00;;;;;;;7.98;68.68;98166.60;232598;181;152935;-57
2024/03/25 21:01:10;;;;;;;15.80;10.70;;;;;;;7.92;68.69;98161.52;233357;181;137908;-59
2024/03/25 21:06:13;;;;;;;18.10;11.40;;;;;;;7.88;68.79;98167.96;233380;181;138745;-59
2024/03/25 21:11:16;;;;;;;17.20;11.50;;;;;;;7.85;68.70;98172.09;233361;181;153203;-58
2024/03/25 21:16:19;;;;;;;20.90;12.30;;;;;;;7.82;68.54;98177.58;233122;181;138404;-58
2024/03/25 21:21:22;;;;;;;21.90;14.00;;;;;;;7.80;68.58;98178.04;233402;181;138412;-59
2024/03/25 21:26:25;;;;;;;19.50;13.70;;;;;;;7.78;68.75;98183.63;232572;181;153444;-59
2024/03/25 21:31:28;;;;;;;21.00;13.80;;;;;;;7.81;68.53;98183.95;233285;181;137692;-58
2024/03/25 21:36:31;;;;;;;26.10;16.10;;;;;;;7.78;68.47;98186.11;233386;181;139511;-58
2024/03/25 21:41:35;;;;;;;27.40;17.30;;;;;;;7.81;68.45;98190.16;233399;170;155121;-59
2024/03/25 21:46:38;;;;;;;25.70;16.70;;;;;;;7.73;68.22;98189.27;233414;181;140828;-58
2024/03/25 21:51:41;;;;;;;28.40;17.50;;;;;;;7.61;68.46;98189.33;233389;181;137197;-58
2024/03/25 21:56:44;;;;;;;28.00;17.70;;;;;;;7.55;68.57;98188.42;233428;181;153275;-59
2024/03/25 22:01:47;;;;;;;26.60;17.70;;;;;;;7.49;68.58;98187.27;232972;181;140725;-58
2024/03/25 22:06:50;;;;;;;26.60;17.50;;;;;;;7.44;68.64;98195.87;233410;181;137958;-57
2024/03/25 22:11:53;;;;;;;27.40;18.50;;;;;;;7.35;68.79;98201.72;233383;181;154241;-58
2024/03/25 22:16:56;;;;;;;26.50;17.80;;;;;;;7.32;68.90;98200.52;232651;181;139288;-58
2024/03/25 22:21:59;;;;;;;28.10;17.40;;;;;;;7.24;69.03;98202.40;232990;181;137269;-60
2024/03/25 22:27:03;;;;;;;28.90;17.90;;;;;;;7.18;69.17;98205.77;233116;170;153083;-57
2024/03/25 22:32:06;;;;;;;27.70;18.10;;;;;;;7.06;69.36;98214.80;233489;181;138793;-58
2024/03/25 22:37:09;;;;;;;25.40;16.90;;;;;;;7.00;69.41;98219.25;233374;181;138162;-56
2024/03/25 22:42:13;;;;;;;997.90;554.70;;;;;;;6.88;69.49;98228.59;233269;181;152779;-58
2024/03/25 22:47:16;;;;;;;25.80;17.40;;;;;;;6.81;69.47;98229.72;233411;181;137599;-57
2024/03/25 22:52:19;;;;;;;28.60;18.40;;;;;;;6.73;69.51;98232.11;233417;181;138817;-58
2024/03/25 22:57:23;;;;;;;30.50;18.30;;;;;;;6.61;69.54;98233.03;233246;181;153074;-59
2024/03/25 23:02:26;;;;;;;29.50;19.00;;;;;;;6.46;69.78;98234.80;233107;181;142049;-58
2024/03/25 23:07:29;;;;;;;30.90;19.30;;;;;;;6.45;70.32;98238.00;233419;181;137614;-56
2024/03/25 23:12:31;;;;;;;27.90;18.00;;;;;;;6.46;69.93;98241.13;233472;181;153205;-58
2024/03/25 23:17:34;;;;;;;28.10;18.10;;;;;;;6.34;70.00;98242.37;233376;181;139214;-58
2024/03/25 23:22:37;;;;;;;29.00;19.10;;;;;;;6.27;70.25;98242.05;233444;181;137326;-59
2024/03/25 23:27:40;;;;;;;28.10;18.90;;;;;;;6.22;70.20;98243.56;233271;181;153038;-59
2024/03/25 23:32:43;;;;;;;26.80;18.30;;;;;;;6.11;70.17;98237.67;233270;181;138609;-57
2024/03/25 23:37:46;;;;;;;26.50;18.50;;;;;;;5.99;70.15;98238.71;233338;181;141403;-58
2024/03/25 23:42:49;;;;;;;28.90;19.40;;;;;;;5.87;70.59;98234.41;233250;181;153858;-57
2024/03/25 23:47:53;;;;;;;29.00;18.00;;;;;;;5.78;70.91;98233.52;232668;181;138734;-57
2024/03/25 23:52:56;;;;;;;25.80;17.80;;;;;;;5.84;71.11;98233.52;232922;170;138706;-57